Time;durP1;ratioP1;P1;durP2;ratioP2;P2;SDS_P1;SDS_P2;PMS_P1;PMS_P2;Temp;Humidity;BMP_temperature;BMP_pressure;BME280_temperature;BME280_humidity;BME280_pressure;Samples;Min_cycle;Max_cycle;Signal;HPM_P1;HPM_P2
2024/04/04 00:02:14;;;;;;;;;10.75;5.00;;;;;;;;5092316;28;8830;-75
2024/04/04 00:04:39;;;;;;;;;5.50;3.50;;;;;;;;5092410;28;8823;-75
2024/04/04 00:07:05;;;;;;;;;3.75;3.00;;;;;;;;5093550;28;8796;-74
2024/04/04 00:09:30;;;;;;;;;5.75;3.00;;;;;;;;5093533;28;8772;-74
2024/04/04 00:11:55;;;;;;;;;4.50;4.50;;;;;;;;5093479;28;8943;-74
2024/04/04 00:14:21;;;;;;;;;5.00;2.25;;;;;;;;5092125;28;8788;-74
2024/04/04 00:16:46;;;;;;;;;3.50;2.00;;;;;;;;5093345;28;8906;-74
2024/04/04 00:19:12;;;;;;;;;6.00;3.50;;;;;;;;5093491;28;8807;-74
2024/04/04 00:21:37;;;;;;;;;5.00;5.00;;;;;;;;5093457;28;8791;-74
2024/04/04 00:24:02;;;;;;;;;7.00;3.00;;;;;;;;5091909;28;8796;-74
2024/04/04 00:26:28;;;;;;;;;2.00;2.00;;;;;;;;5093380;28;8776;-74
2024/04/04 00:28:53;;;;;;;;;3.00;3.00;;;;;;;;5093234;28;8795;-74
2024/04/04 00:31:19;;;;;;;;;3.00;2.50;;;;;;;;5092900;28;8827;-74
2024/04/04 00:33:45;;;;;;;;;2.75;2.75;;;;;;;;5092998;28;8787;-74
2024/04/04 00:36:10;;;;;;;;;3.00;3.00;;;;;;;;5093146;28;8806;-74
2024/04/04 00:38:36;;;;;;;;;2.75;2.75;;;;;;;;5093117;28;8788;-74
2024/04/04 00:41:01;;;;;;;;;2.75;2.75;;;;;;;;5092906;28;9493;-74
2024/04/04 00:43:26;;;;;;;;;6.75;3.00;;;;;;;;5092980;28;8860;-74
2024/04/04 00:45:52;;;;;;;;;7.00;3.00;;;;;;;;5092841;28;8930;-74
2024/04/04 00:48:17;;;;;;;;;1.25;1.25;;;;;;;;5093042;28;8772;-74
2024/04/04 00:50:43;;;;;;;;;2.00;2.00;;;;;;;;5093018;28;8814;-74
2024/04/04 00:53:08;;;;;;;;;2.50;2.00;;;;;;;;5091545;28;9522;-74
2024/04/04 00:55:33;;;;;;;;;2.75;2.00;;;;;;;;5092801;28;8796;-74
2024/04/04 00:58:00;;;;;;;;;6.50;3.00;;;;;;;;5092773;28;8826;-74
2024/04/04 01:00:25;;;;;;;;;5.00;2.25;;;;;;;;5091711;28;8807;-74
2024/04/04 01:02:51;;;;;;;;;2.00;0.75;;;;;;;;5091527;28;11397;-75
2024/04/04 01:05:17;;;;;;;;;2.25;2.25;;;;;;;;5092597;28;8799;-74
2024/04/04 01:07:42;;;;;;;;;1.75;1.75;;;;;;;;5092497;28;11382;-74
2024/04/04 01:10:08;;;;;;;;;1.75;1.00;;;;;;;;5092568;28;8933;-75
2024/04/04 01:12:34;;;;;;;;;2.00;2.00;;;;;;;;5092303;28;8837;-74
2024/04/04 01:14:59;;;;;;;;;3.00;2.25;;;;;;;;5092158;28;11423;-74
2024/04/04 01:17:24;;;;;;;;;3.00;2.50;;;;;;;;5092279;28;8776;-74
2024/04/04 01:19:51;;;;;;;;;3.00;2.00;;;;;;;;5092359;28;8776;-74
2024/04/04 01:22:16;;;;;;;;;2.00;2.00;;;;;;;;5092372;28;8937;-74
2024/04/04 01:24:42;;;;;;;;;5.00;2.00;;;;;;;;5092041;28;12109;-74
2024/04/04 01:27:08;;;;;;;;;2.50;2.00;;;;;;;;5092062;28;8779;-74
2024/04/04 01:29:33;;;;;;;;;5.00;2.50;;;;;;;;5092020;28;8788;-74
2024/04/04 01:31:58;;;;;;;;;1.50;1.50;;;;;;;;5092140;28;11415;-74
2024/04/04 01:34:24;;;;;;;;;1.00;1.00;;;;;;;;5090706;28;8799;-74
2024/04/04 01:36:49;;;;;;;;;2.50;1.50;;;;;;;;5091935;28;8788;-76
2024/04/04 01:39:15;;;;;;;;;6.00;3.00;;;;;;;;5090469;28;8872;-75
2024/04/04 01:41:43;;;;;;;;;2.50;1.50;;;;;;;;5091856;28;8830;-75
2024/04/04 01:44:08;;;;;;;;;1.50;1.50;;;;;;;;5091738;28;8875;-73
2024/04/04 01:46:34;;;;;;;;;2.00;2.00;;;;;;;;5091584;28;11483;-74
2024/04/04 01:48:59;;;;;;;;;1.00;1.00;;;;;;;;5091641;28;8981;-74
2024/04/04 01:51:24;;;;;;;;;1.75;1.00;;;;;;;;5091561;28;8842;-75
2024/04/04 01:53:50;;;;;;;;;2.50;2.00;;;;;;;;5091689;28;8860;-75
2024/04/04 01:56:15;;;;;;;;;3.00;3.00;;;;;;;;5091685;28;8810;-75
2024/04/04 01:58:40;;;;;;;;;1.00;1.00;;;;;;;;5091953;28;8787;-73
2024/04/04 02:01:05;;;;;;;;;2.00;1.00;;;;;;;;5091270;28;8904;-75
2024/04/04 02:03:31;;;;;;;;;3.50;2.00;;;;;;;;5091389;28;8779;-74
2024/04/04 02:05:56;;;;;;;;;0.50;0.50;;;;;;;;5091532;28;8911;-75
2024/04/04 02:08:21;;;;;;;;;3.00;1.00;;;;;;;;5091450;28;8772;-74
2024/04/04 02:10:47;;;;;;;;;1.00;0.00;;;;;;;;5090889;28;8784;-74
2024/04/04 02:13:12;;;;;;;;;1.75;1.75;;;;;;;;5091070;28;8799;-72
2024/04/04 02:15:38;;;;;;;;;2.75;1.00;;;;;;;;5090050;28;8788;-73
2024/04/04 02:18:04;;;;;;;;;3.00;2.00;;;;;;;;5091204;28;8890;-73
2024/04/04 02:20:29;;;;;;;;;3.00;1.00;;;;;;;;5091013;28;11415;-74
2024/04/04 02:22:54;;;;;;;;;2.50;1.50;;;;;;;;5091164;28;8903;-74
2024/04/04 02:25:20;;;;;;;;;1.00;1.00;;;;;;;;5091290;28;8768;-74
2024/04/04 02:27:45;;;;;;;;;1.00;1.00;;;;;;;;5090902;28;8874;-74
2024/04/04 02:30:12;;;;;;;;;5.25;2.00;;;;;;;;5089745;28;8800;-74
2024/04/04 02:32:37;;;;;;;;;1.75;1.75;;;;;;;;5090778;28;9526;-74
2024/04/04 02:35:04;;;;;;;;;2.75;1.25;;;;;;;;5090732;28;11387;-74
2024/04/04 02:37:30;;;;;;;;;2.75;1.00;;;;;;;;5089851;28;9036;-74
2024/04/04 02:39:55;;;;;;;;;1.00;1.00;;;;;;;;5090842;28;11365;-74
2024/04/04 02:42:21;;;;;;;;;1.75;1.00;;;;;;;;5090714;28;8881;-74
2024/04/04 02:44:46;;;;;;;;;2.00;2.00;;;;;;;;5090746;28;8760;-74
2024/04/04 02:47:11;;;;;;;;;1.00;1.00;;;;;;;;5090643;28;8869;-74
2024/04/04 02:49:36;;;;;;;;;2.00;2.00;;;;;;;;5090729;28;8895;-74
2024/04/04 02:52:02;;;;;;;;;1.25;1.00;;;;;;;;5090574;28;8823;-74
2024/04/04 02:54:27;;;;;;;;;1.00;1.00;;;;;;;;5090514;28;8776;-74
2024/04/04 02:56:52;;;;;;;;;1.00;1.00;;;;;;;;5089262;28;8970;-74
2024/04/04 02:59:18;;;;;;;;;1.00;1.00;;;;;;;;5091011;28;8800;-73
2024/04/04 03:01:43;;;;;;;;;1.25;1.00;;;;;;;;5090461;28;8966;-74
2024/04/04 03:04:09;;;;;;;;;1.00;1.00;;;;;;;;5090482;28;8776;-74
2024/04/04 03:06:35;;;;;;;;;1.00;1.00;;;;;;;;5090541;28;8776;-74
2024/04/04 03:09:00;;;;;;;;;2.00;2.00;;;;;;;;5090378;28;11368;-74
2024/04/04 03:11:26;;;;;;;;;2.00;1.75;;;;;;;;5088919;28;11439;-74
2024/04/04 03:13:52;;;;;;;;;1.00;1.00;;;;;;;;5090147;28;8780;-75
2024/04/04 03:16:17;;;;;;;;;0.00;0.00;;;;;;;;5090325;28;8788;-74
2024/04/04 03:18:42;;;;;;;;;2.00;1.00;;;;;;;;5090292;28;8788;-75
2024/04/04 03:21:08;;;;;;;;;1.00;1.00;;;;;;;;5090563;28;8792;-74
2024/04/04 03:23:33;;;;;;;;;1.00;1.00;;;;;;;;5090620;28;8799;-75
2024/04/04 03:25:59;;;;;;;;;1.25;1.25;;;;;;;;5094390;28;8791;-77
2024/04/04 03:28:25;;;;;;;;;8.50;2.25;;;;;;;;5094296;28;9337;-76
2024/04/04 03:30:51;;;;;;;;;1.00;1.00;;;;;;;;5094428;28;8783;-76
2024/04/04 03:33:16;;;;;;;;;2.50;2.00;;;;;;;;5093954;28;11489;-75
2024/04/04 03:35:41;;;;;;;;;3.00;1.50;;;;;;;;5094229;28;8880;-75
2024/04/04 03:38:06;;;;;;;;;3.25;2.00;;;;;;;;5093980;28;9482;-75
2024/04/04 03:40:32;;;;;;;;;1.00;1.00;;;;;;;;5094734;28;8775;-75
2024/04/04 03:42:57;;;;;;;;;3.00;1.75;;;;;;;;5093974;28;8784;-75
2024/04/04 03:45:23;;;;;;;;;1.00;1.00;;;;;;;;5093898;28;8816;-75
2024/04/04 03:47:48;;;;;;;;;1.00;1.00;;;;;;;;5094004;28;8772;-76
2024/04/04 03:50:14;;;;;;;;;1.75;1.75;;;;;;;;5094197;28;8814;-76
2024/04/04 03:52:39;;;;;;;;;3.50;2.00;;;;;;;;5093745;28;8924;-73
2024/04/04 03:55:04;;;;;;;;;1.00;1.00;;;;;;;;5094010;28;8780;-74
2024/04/04 03:57:30;;;;;;;;;1.50;1.50;;;;;;;;5093782;28;8815;-73
2024/04/04 03:59:55;;;;;;;;;3.00;2.50;;;;;;;;5094518;28;8861;-72
2024/04/04 04:02:21;;;;;;;;;1.75;1.50;;;;;;;;5093673;28;8834;-71
2024/04/04 04:04:47;;;;;;;;;1.00;1.00;;;;;;;;5093721;28;8775;-72
2024/04/04 04:07:12;;;;;;;;;1.00;1.00;;;;;;;;5093682;28;12187;-73
2024/04/04 04:09:37;;;;;;;;;4.00;1.00;;;;;;;;5093740;28;8780;-71
2024/04/04 04:12:03;;;;;;;;;3.00;1.00;;;;;;;;5093417;28;8841;-70
2024/04/04 04:14:28;;;;;;;;;1.00;1.00;;;;;;;;5093858;28;8860;-70
2024/04/04 04:16:53;;;;;;;;;1.00;1.00;;;;;;;;5093491;28;8868;-70
2024/04/04 04:19:19;;;;;;;;;4.00;1.00;;;;;;;;5092406;28;8812;-70
2024/04/04 04:21:44;;;;;;;;;2.25;1.00;;;;;;;;5093139;28;8838;-71
2024/04/04 04:24:09;;;;;;;;;1.00;1.00;;;;;;;;5093234;28;8884;-72
2024/04/04 04:26:35;;;;;;;;;2.75;1.00;;;;;;;;5093231;28;8776;-75
2024/04/04 04:29:01;;;;;;;;;1.00;1.00;;;;;;;;5093268;28;8784;-76
2024/04/04 04:31:27;;;;;;;;;1.00;1.00;;;;;;;;5091690;28;8820;-75
2024/04/04 04:33:53;;;;;;;;;1.25;1.25;;;;;;;;5092919;28;8780;-73
2024/04/04 04:36:18;;;;;;;;;2.00;1.75;;;;;;;;5093078;28;11454;-76
2024/04/04 04:38:44;;;;;;;;;1.00;1.00;;;;;;;;5093134;28;8796;-76
2024/04/04 04:41:10;;;;;;;;;2.25;1.25;;;;;;;;5092821;28;8804;-81
2024/04/04 04:43:35;;;;;;;;;1.00;1.00;;;;;;;;5092835;28;8761;-70
2024/04/04 04:46:00;;;;;;;;;2.00;2.00;;;;;;;;5092711;28;8788;-69
2024/04/04 04:48:26;;;;;;;;;2.75;1.00;;;;;;;;5092905;28;8760;-69
2024/04/04 04:50:51;;;;;;;;;6.00;3.00;;;;;;;;5091394;28;8927;-69
2024/04/04 04:53:17;;;;;;;;;5.00;1.75;;;;;;;;5092733;28;8834;-70
2024/04/04 04:55:46;;;;;;;;;5.00;2.00;;;;;;;;5092725;28;8772;-71
2024/04/04 04:58:11;;;;;;;;;2.50;2.00;;;;;;;;5092825;28;8764;-75
2024/04/04 05:00:37;;;;;;;;;2.25;1.00;;;;;;;;5071142;22;11692;-71
2024/04/04 05:03:03;;;;;;;;;1.00;1.00;;;;;;;;5047527;28;9652;-69
2024/04/04 05:05:28;;;;;;;;;1.00;1.00;;;;;;;;5032106;28;8976;-71
2024/04/04 05:07:53;;;;;;;;;6.50;2.75;;;;;;;;5031338;28;8828;-71
2024/04/04 05:10:18;;;;;;;;;4.25;2.00;;;;;;;;5031806;28;8850;-83
2024/04/04 05:12:44;;;;;;;;;3.00;1.25;;;;;;;;5032290;28;8938;-78
2024/04/04 05:15:09;;;;;;;;;5.00;2.25;;;;;;;;5030618;28;8823;-75
2024/04/04 05:17:34;;;;;;;;;2.75;2.75;;;;;;;;5032049;28;8768;-77
2024/04/04 05:20:00;;;;;;;;;2.00;2.00;;;;;;;;5032156;28;9583;-73
2024/04/04 05:22:29;;;;;;;;;5.00;2.50;;;;;;;;5031907;28;8807;-72
2024/04/04 05:24:54;;;;;;;;;3.00;3.00;;;;;;;;5032043;28;8788;-72
2024/04/04 05:27:20;;;;;;;;;3.00;2.75;;;;;;;;5031712;28;11527;-78
2024/04/04 05:29:45;;;;;;;;;3.00;3.00;;;;;;;;5031696;28;8814;-72
2024/04/04 05:32:10;;;;;;;;;4.50;2.00;;;;;;;;5031566;28;8866;-72
2024/04/04 05:34:36;;;;;;;;;2.00;2.00;;;;;;;;5031525;28;8822;-75
2024/04/04 05:37:01;;;;;;;;;2.25;2.25;;;;;;;;5031721;28;8806;-73
2024/04/04 05:39:27;;;;;;;;;6.50;5.00;;;;;;;;5031501;28;8784;-73
2024/04/04 05:41:53;;;;;;;;;5.00;2.00;;;;;;;;5028043;28;8827;-73
2024/04/04 05:44:18;;;;;;;;;5.00;3.00;;;;;;;;5031329;28;8799;-72
2024/04/04 05:46:43;;;;;;;;;5.25;3.00;;;;;;;;5030562;28;11563;-78
2024/04/04 05:49:09;;;;;;;;;6.00;2.75;;;;;;;;5031208;28;8889;-73
2024/04/04 05:51:34;;;;;;;;;4.00;4.00;;;;;;;;5031246;28;8843;-73
2024/04/04 05:53:59;;;;;;;;;6.00;4.50;;;;;;;;5030902;28;9610;-75
2024/04/04 05:56:25;;;;;;;;;6.00;3.00;;;;;;;;5030800;28;8795;-71
2024/04/04 05:58:50;;;;;;;;;5.75;3.00;;;;;;;;5031123;28;8792;-68
2024/04/04 06:01:16;;;;;;;;;3.00;3.00;;;;;;;;5031736;28;8788;-76
2024/04/04 06:03:42;;;;;;;;;3.00;3.00;;;;;;;;5029761;28;8835;-74
2024/04/04 06:06:07;;;;;;;;;9.50;4.50;;;;;;;;5029839;28;8826;-75
2024/04/04 06:08:33;;;;;;;;;6.50;5.50;;;;;;;;5030172;28;11475;-73
2024/04/04 06:10:58;;;;;;;;;5.00;3.00;;;;;;;;5030427;28;8819;-74
2024/04/04 06:13:23;;;;;;;;;4.50;4.00;;;;;;;;5030519;28;8812;-73
2024/04/04 06:15:55;;;;;;;;;4.50;3.50;;;;;;;;5030483;28;8800;-72
2024/04/04 06:18:20;;;;;;;;;3.50;2.25;;;;;;;;5030845;28;8808;-70
2024/04/04 06:20:46;;;;;;;;;2.25;2.00;;;;;;;;5030466;28;11500;-70
2024/04/04 06:23:11;;;;;;;;;7.50;2.00;;;;;;;;5030581;28;8882;-70
2024/04/04 06:25:36;;;;;;;;;2.25;2.25;;;;;;;;5030584;28;8873;-70
2024/04/04 06:28:02;;;;;;;;;5.25;3.00;;;;;;;;5030469;28;8827;-70
2024/04/04 06:30:27;;;;;;;;;2.75;2.75;;;;;;;;5028917;28;9518;-69
2024/04/04 06:32:52;;;;;;;;;9.00;8.00;;;;;;;;5030235;28;8831;-70
2024/04/04 06:35:18;;;;;;;;;15.50;10.75;;;;;;;;5030243;28;8894;-68
2024/04/04 06:37:47;;;;;;;;;23.75;22.75;;;;;;;;5030139;28;8817;-71
2024/04/04 06:40:13;;;;;;;;;9.25;9.00;;;;;;;;5030125;28;9646;-70
2024/04/04 06:42:38;;;;;;;;;16.75;12.50;;;;;;;;5029974;28;11498;-69
2024/04/04 06:45:03;;;;;;;;;15.75;12.75;;;;;;;;5030137;28;9560;-69
2024/04/04 06:47:29;;;;;;;;;13.50;11.25;;;;;;;;5030068;28;8849;-69
2024/04/04 06:49:54;;;;;;;;;16.75;14.75;;;;;;;;5030093;28;8768;-70
2024/04/04 06:52:19;;;;;;;;;11.75;10.50;;;;;;;;5028340;28;8840;-69
2024/04/04 06:54:44;;;;;;;;;13.50;11.75;;;;;;;;5030114;28;8882;-70
2024/04/04 06:57:10;;;;;;;;;17.50;13.00;;;;;;;;5030098;28;8792;-69
2024/04/04 06:59:35;;;;;;;;;12.00;11.00;;;;;;;;5030260;28;8799;-70
2024/04/04 07:02:01;;;;;;;;;14.25;11.50;;;;;;;;5030026;28;8850;-70
2024/04/04 07:04:26;;;;;;;;;10.00;9.50;;;;;;;;5029886;28;8807;-70
2024/04/04 07:06:52;;;;;;;;;11.00;10.00;;;;;;;;5028395;28;9636;-70
2024/04/04 07:09:17;;;;;;;;;11.25;11.25;;;;;;;;5029649;28;8796;-70
2024/04/04 07:11:43;;;;;;;;;11.50;11.00;;;;;;;;5029706;28;9647;-70
2024/04/04 07:14:08;;;;;;;;;10.00;10.00;;;;;;;;5029866;28;8914;-70
2024/04/04 07:16:33;;;;;;;;;11.00;11.00;;;;;;;;5029895;28;9557;-70
2024/04/04 07:18:59;;;;;;;;;13.75;12.75;;;;;;;;5029929;28;9607;-70
2024/04/04 07:21:24;;;;;;;;;15.25;13.75;;;;;;;;5045123;28;8823;-71
2024/04/04 07:23:50;;;;;;;;;14.50;11.50;;;;;;;;5029736;28;8800;-70
2024/04/04 07:26:15;;;;;;;;;12.50;11.50;;;;;;;;5029753;28;9506;-70
2024/04/04 07:28:42;;;;;;;;;12.75;12.00;;;;;;;;5029843;28;8810;-71
2024/04/04 07:31:07;;;;;;;;;14.75;13.75;;;;;;;;5029807;28;9526;-72
2024/04/04 07:33:33;;;;;;;;;11.50;11.50;;;;;;;;5029425;28;11492;-71
2024/04/04 07:35:58;;;;;;;;;13.00;12.25;;;;;;;;5030015;28;8906;-71
2024/04/04 07:38:23;;;;;;;;;35.50;33.75;;;;;;;;5029462;28;8814;-72
2024/04/04 07:40:48;;;;;;;;;50.50;40.75;;;;;;;;5029886;28;8783;-72
2024/04/04 07:43:14;;;;;;;;;57.67;46.00;;;;;;;;5029673;28;8803;-73
2024/04/04 07:45:40;;;;;;;;;57.25;45.50;;;;;;;;5029570;28;8958;-72
2024/04/04 07:48:07;;;;;;;;;40.75;36.25;;;;;;;;5029752;28;8898;-72
2024/04/04 07:50:34;;;;;;;;;32.75;28.25;;;;;;;;5029596;28;12344;-73
2024/04/04 07:52:59;;;;;;;;;20.00;19.25;;;;;;;;5029306;28;11563;-74
2024/04/04 07:55:24;;;;;;;;;24.75;19.00;;;;;;;;5029644;28;11552;-72
2024/04/04 07:57:50;;;;;;;;;19.75;16.50;;;;;;;;5029606;28;8818;-73
2024/04/04 08:00:15;;;;;;;;;19.75;18.25;;;;;;;;5030068;28;9538;-75
2024/04/04 08:02:43;;;;;;;;;22.25;19.00;;;;;;;;5044922;28;8930;-79
2024/04/04 08:05:08;;;;;;;;;20.50;18.75;;;;;;;;5029586;28;8796;-72
2024/04/04 08:07:36;;;;;;;;;36.75;32.25;;;;;;;;5029477;28;12276;-71
2024/04/04 08:10:11;;;;;;;;;44.50;37.75;;;;;;;;5031667;28;8898;-72
2024/04/04 08:12:37;;;;;;;;;38.25;33.00;;;;;;;;5033039;28;11570;-72
2024/04/04 08:15:03;;;;;;;;;32.25;25.00;;;;;;;;5033271;28;11552;-73
2024/04/04 08:17:29;;;;;;;;;31.25;28.00;;;;;;;;5032968;28;11656;-73
2024/04/04 08:19:55;;;;;;;;;17.00;15.75;;;;;;;;5032896;28;11648;-73
2024/04/04 08:22:20;;;;;;;;;23.50;21.00;;;;;;;;5032827;28;12251;-73
2024/04/04 08:24:45;;;;;;;;;19.75;18.25;;;;;;;;5033116;28;8796;-73
2024/04/04 08:27:11;;;;;;;;;19.00;15.50;;;;;;;;5032955;28;8795;-73
2024/04/04 08:29:37;;;;;;;;;18.50;16.00;;;;;;;;5032785;28;8862;-73
2024/04/04 08:32:03;;;;;;;;;16.75;15.75;;;;;;;;5032727;28;8932;-73
2024/04/04 08:34:30;;;;;;;;;15.75;14.75;;;;;;;;5032703;28;8822;-73
2024/04/04 08:36:56;;;;;;;;;25.50;22.25;;;;;;;;5032730;28;11526;-73
2024/04/04 08:39:21;;;;;;;;;29.50;25.50;;;;;;;;5032594;28;11517;-75
2024/04/04 08:41:47;;;;;;;;;15.75;15.75;;;;;;;;5032596;28;8814;-73
2024/04/04 08:44:13;;;;;;;;;19.50;16.25;;;;;;;;5032688;28;8815;-73
2024/04/04 08:46:39;;;;;;;;;18.50;14.00;;;;;;;;5032673;28;8822;-73
2024/04/04 08:49:06;;;;;;;;;17.50;14.75;;;;;;;;5032461;28;11447;-73
2024/04/04 08:51:31;;;;;;;;;16.25;13.75;;;;;;;;5032292;28;11489;-73
2024/04/04 08:53:57;;;;;;;;;12.75;12.00;;;;;;;;5032239;28;11556;-73
2024/04/04 08:56:22;;;;;;;;;16.00;15.25;;;;;;;;5032284;28;9531;-73
2024/04/04 08:58:47;;;;;;;;;12.75;12.75;;;;;;;;5032449;28;8776;-73
2024/04/04 09:01:13;;;;;;;;;11.50;9.25;;;;;;;;5047813;28;8901;-73
2024/04/04 09:03:42;;;;;;;;;16.00;13.75;;;;;;;;5032175;28;8814;-73
2024/04/04 09:06:07;;;;;;;;;16.50;15.50;;;;;;;;5032219;28;8818;-73
2024/04/04 09:08:32;;;;;;;;;13.75;12.00;;;;;;;;5032047;28;11458;-73
2024/04/04 09:11:01;;;;;;;;;13.75;13.75;;;;;;;;5032196;28;8784;-72
2024/04/04 09:13:26;;;;;;;;;15.50;12.25;;;;;;;;5031980;28;9672;-72
2024/04/04 09:15:58;;;;;;;;;20.00;16.75;;;;;;;;5031921;28;11576;-73
2024/04/04 09:18:24;;;;;;;;;30.75;29.25;;;;;;;;5031882;28;8873;-73
2024/04/04 09:20:49;;;;;;;;;40.00;33.50;;;;;;;;5031756;28;11542;-73
2024/04/04 09:23:14;;;;;;;;;39.00;34.50;;;;;;;;5047007;28;8818;-73
2024/04/04 09:25:40;;;;;;;;;32.75;30.75;;;;;;;;5031966;28;8818;-73
2024/04/04 09:28:08;;;;;;;;;20.00;13.50;;;;;;;;5030449;28;8913;-73
2024/04/04 09:30:34;;;;;;;;;26.75;24.25;;;;;;;;5031711;28;8799;-73
2024/04/04 09:33:00;;;;;;;;;21.50;19.25;;;;;;;;5031464;28;11675;-73
2024/04/04 09:35:25;;;;;;;;;22.25;18.25;;;;;;;;5031596;28;11537;-72
2024/04/04 09:37:51;;;;;;;;;21.25;17.25;;;;;;;;5031687;28;8914;-73
2024/04/04 09:40:17;;;;;;;;;20.75;18.75;;;;;;;;5031571;28;8816;-73
2024/04/04 09:42:44;;;;;;;;;21.00;18.00;;;;;;;;5031517;28;8819;-73
2024/04/04 09:45:10;;;;;;;;;18.25;16.75;;;;;;;;5031333;28;11608;-74
2024/04/04 09:47:41;;;;;;;;;25.00;22.75;;;;;;;;5031271;28;11476;-73
2024/04/04 09:50:06;;;;;;;;;22.00;20.00;;;;;;;;5031355;28;11613;-73
2024/04/04 09:52:32;;;;;;;;;25.00;22.75;;;;;;;;5031134;28;11480;-74
2024/04/04 09:54:57;;;;;;;;;23.00;21.25;;;;;;;;5031301;28;8792;-73
2024/04/04 09:57:23;;;;;;;;;51.75;42.50;;;;;;;;5031233;28;8912;-73
2024/04/04 10:00:01;;;;;;;;;29.75;25.00;;;;;;;;5045334;23;8806;-78
2024/04/04 10:02:35;;;;;;;;;26.50;25.00;;;;;;;;5030462;28;8830;-78
2024/04/04 10:05:01;;;;;;;;;22.25;21.25;;;;;;;;5031277;28;12218;-78
2024/04/04 10:07:26;;;;;;;;;24.50;21.00;;;;;;;;5046398;28;11544;-78
2024/04/04 10:09:52;;;;;;;;;25.00;22.75;;;;;;;;5031171;28;8808;-78
2024/04/04 10:12:17;;;;;;;;;18.25;17.00;;;;;;;;5031011;28;8839;-78
2024/04/04 10:14:53;;;;;;;;;28.75;24.25;;;;;;;;5030879;28;8898;-78
2024/04/04 10:17:19;;;;;;;;;23.75;19.00;;;;;;;;5031239;28;8768;-78
2024/04/04 10:19:45;;;;;;;;;24.50;24.00;;;;;;;;5030967;28;11072;-78
2024/04/04 10:22:14;;;;;;;;;25.50;22.25;;;;;;;;5030753;28;12356;-78
2024/04/04 10:24:40;;;;;;;;;24.25;22.50;;;;;;;;5030936;28;8780;-78
2024/04/04 10:27:07;;;;;;;;;23.00;22.00;;;;;;;;5030602;28;11491;-78
2024/04/04 10:29:34;;;;;;;;;23.75;23.00;;;;;;;;5030919;28;8796;-78
2024/04/04 10:32:00;;;;;;;;;23.50;21.25;;;;;;;;5030185;28;11599;-77
2024/04/04 10:34:25;;;;;;;;;24.50;23.75;;;;;;;;5030888;28;11541;-79
2024/04/04 10:36:51;;;;;;;;;27.75;23.00;;;;;;;;5030679;28;8881;-77
2024/04/04 10:39:21;;;;;;;;;24.50;23.50;;;;;;;;5030870;28;8893;-77
2024/04/04 10:41:49;;;;;;;;;25.75;22.00;;;;;;;;5030602;28;8822;-77
2024/04/04 10:44:16;;;;;;;;;20.75;19.00;;;;;;;;5030541;28;12142;-78
2024/04/04 10:46:47;;;;;;;;;18.50;15.50;;;;;;;;5030497;28;11452;-78
2024/04/04 10:49:13;;;;;;;;;17.75;14.00;;;;;;;;5030566;28;11980;-76
2024/04/04 10:51:41;;;;;;;;;24.00;20.25;;;;;;;;5030403;28;10725;-77
2024/04/04 10:54:07;;;;;;;;;16.25;14.00;;;;;;;;5030289;28;11579;-77
2024/04/04 10:56:33;;;;;;;;;11.25;7.00;;;;;;;;5030416;28;11470;-77
2024/04/04 10:58:58;;;;;;;;;16.50;16.00;;;;;;;;5029001;28;10877;-77
2024/04/04 11:01:24;;;;;;;;;19.75;17.00;;;;;;;;5030663;28;9647;-77
2024/04/04 11:03:54;;;;;;;;;16.75;15.25;;;;;;;;5030405;28;8795;-77
2024/04/04 11:06:20;;;;;;;;;16.00;16.00;;;;;;;;5030733;28;8784;-78
2024/04/04 11:08:46;;;;;;;;;18.00;14.25;;;;;;;;5033033;28;11081;-77
2024/04/04 11:11:12;;;;;;;;;15.00;14.00;;;;;;;;5040203;28;11179;-77
2024/04/04 11:13:39;;;;;;;;;13.50;13.00;;;;;;;;5030127;28;8838;-77
2024/04/04 11:16:04;;;;;;;;;11.25;10.00;;;;;;;;5030038;28;8910;-77
2024/04/04 11:18:29;;;;;;;;;8.50;8.00;;;;;;;;5030198;28;10565;-77
2024/04/04 11:20:55;;;;;;;;;7.50;7.00;;;;;;;;5030235;28;8897;-76
2024/04/04 11:23:20;;;;;;;;;7.75;7.75;;;;;;;;5030042;28;8799;-77
2024/04/04 11:25:46;;;;;;;;;9.00;9.00;;;;;;;;5030256;28;8890;-77
2024/04/04 11:28:11;;;;;;;;;8.75;8.00;;;;;;;;5030259;28;8799;-77
2024/04/04 11:30:37;;;;;;;;;6.00;6.00;;;;;;;;5030322;28;8796;-77
2024/04/04 11:33:02;;;;;;;;;7.25;7.25;;;;;;;;5030061;28;9661;-77
2024/04/04 11:35:28;;;;;;;;;7.25;6.50;;;;;;;;5030175;28;8877;-77
2024/04/04 11:37:53;;;;;;;;;7.25;4.50;;;;;;;;5030146;28;8824;-78
2024/04/04 11:40:18;;;;;;;;;7.00;5.25;;;;;;;;5030120;28;8818;-78
2024/04/04 11:42:43;;;;;;;;;6.75;6.75;;;;;;;;5029872;28;8878;-77
2024/04/04 11:45:09;;;;;;;;;9.75;7.75;;;;;;;;5032408;28;8792;-78
2024/04/04 11:47:34;;;;;;;;;8.00;6.75;;;;;;;;5033843;28;8877;-78
2024/04/04 11:50:00;;;;;;;;;8.75;7.25;;;;;;;;5033927;28;9529;-77
2024/04/04 11:52:27;;;;;;;;;7.25;5.00;;;;;;;;5033627;28;8893;-77
2024/04/04 11:54:52;;;;;;;;;6.00;6.00;;;;;;;;5033862;28;8783;-77
2024/04/04 11:57:18;;;;;;;;;6.00;6.00;;;;;;;;5033597;28;10360;-77
2024/04/04 11:59:44;;;;;;;;;6.50;6.50;;;;;;;;5034179;28;8784;-77
2024/04/04 12:02:09;;;;;;;;;10.25;8.00;;;;;;;;5033454;28;8808;-77
2024/04/04 12:04:41;;;;;;;;;9.00;7.50;;;;;;;;5033712;28;8842;-77
2024/04/04 12:07:06;;;;;;;;;7.50;5.00;;;;;;;;5033454;28;8900;-78
2024/04/04 12:09:31;;;;;;;;;5.50;5.00;;;;;;;;5033418;28;10500;-78
2024/04/04 12:11:57;;;;;;;;;6.25;4.00;;;;;;;;5033489;28;8850;-78
2024/04/04 12:14:22;;;;;;;;;7.50;4.00;;;;;;;;5033331;28;8938;-78
2024/04/04 12:16:50;;;;;;;;;3.00;3.00;;;;;;;;5033217;28;8805;-78
2024/04/04 12:19:28;;;;;;;;;4.75;3.00;;;;;;;;5033292;28;8814;-77
2024/04/04 12:21:56;;;;;;;;;31.25;28.50;;;;;;;;5031814;28;10091;-78
2024/04/04 12:24:21;;;;;;;;;5.00;5.00;;;;;;;;5033125;28;11503;-78
2024/04/04 12:26:47;;;;;;;;;10.00;8.00;;;;;;;;5033051;28;10857;-78
2024/04/04 12:29:16;;;;;;;;;3.25;3.25;;;;;;;;5033126;28;8804;-78
2024/04/04 12:31:41;;;;;;;;;3.00;3.00;;;;;;;;5032837;28;8811;-78
2024/04/04 12:34:07;;;;;;;;;4.50;3.00;;;;;;;;5032836;28;10113;-78
2024/04/04 12:36:32;;;;;;;;;4.00;4.00;;;;;;;;5033063;28;8787;-79
2024/04/04 12:38:57;;;;;;;;;6.00;5.00;;;;;;;;5033028;28;9556;-78
2024/04/04 12:41:23;;;;;;;;;3.00;3.00;;;;;;;;5032872;28;8815;-79
2024/04/04 12:43:48;;;;;;;;;5.00;4.00;;;;;;;;5032961;28;8772;-77
2024/04/04 12:46:13;;;;;;;;;4.00;4.00;;;;;;;;5033033;28;8815;-79
2024/04/04 12:48:41;;;;;;;;;2.75;2.00;;;;;;;;5032760;28;8811;-82
2024/04/04 12:51:06;;;;;;;;;8.50;7.00;;;;;;;;5032780;28;9518;-77
2024/04/04 12:53:31;;;;;;;;;4.75;3.25;;;;;;;;5032555;28;10552;-76
2024/04/04 12:55:57;;;;;;;;;4.75;4.75;;;;;;;;5029908;28;9000;-76
2024/04/04 12:58:22;;;;;;;;;6.75;6.75;;;;;;;;5023329;28;8824;-77
2024/04/04 13:00:47;;;;;;;;;4.50;3.00;;;;;;;;5058574;28;8842;-77
2024/04/04 13:03:13;;;;;;;;;6.75;4.75;;;;;;;;5022050;28;8877;-76
2024/04/04 13:05:38;;;;;;;;;4.75;4.75;;;;;;;;5021967;28;8808;-78
2024/04/04 13:08:04;;;;;;;;;5.75;5.00;;;;;;;;5020617;28;8806;-77
2024/04/04 13:10:30;;;;;;;;;6.50;4.50;;;;;;;;5029704;28;8894;-77
2024/04/04 13:12:55;;;;;;;;;4.50;4.50;;;;;;;;5032149;28;11492;-76
2024/04/04 13:15:20;;;;;;;;;32.25;30.00;;;;;;;;5032299;28;8792;-77
2024/04/04 13:17:46;;;;;;;;;7.75;7.75;;;;;;;;5032233;28;8800;-77
2024/04/04 13:20:11;;;;;;;;;8.75;8.75;;;;;;;;5032192;28;8784;-77
2024/04/04 13:22:37;;;;;;;;;4.00;4.00;;;;;;;;5032136;28;8822;-78
2024/04/04 13:25:02;;;;;;;;;5.00;5.00;;;;;;;;5033146;28;8823;-78
2024/04/04 13:27:28;;;;;;;;;4.75;4.25;;;;;;;;5032127;28;8955;-81
2024/04/04 13:29:53;;;;;;;;;3.75;3.75;;;;;;;;5032032;28;8871;-78
2024/04/04 13:32:18;;;;;;;;;10.50;10.50;;;;;;;;5032010;28;8823;-79
2024/04/04 13:34:44;;;;;;;;;5.00;5.00;;;;;;;;5031968;28;8795;-73
2024/04/04 13:37:09;;;;;;;;;5.00;5.00;;;;;;;;5031944;28;8902;-76
2024/04/04 13:39:34;;;;;;;;;11.00;8.25;;;;;;;;5031848;28;8830;-79
2024/04/04 13:41:59;;;;;;;;;10.75;6.00;;;;;;;;5031355;28;8797;-75
2024/04/04 13:44:25;;;;;;;;;5.75;5.75;;;;;;;;5020275;28;8806;-74
2024/04/04 13:46:50;;;;;;;;;5.00;5.00;;;;;;;;5024588;28;8823;-74
2024/04/04 13:49:15;;;;;;;;;9.50;7.00;;;;;;;;5021553;28;8821;-74
2024/04/04 13:51:41;;;;;;;;;4.00;4.00;;;;;;;;5020379;28;8948;-75
2024/04/04 13:54:06;;;;;;;;;4.00;4.00;;;;;;;;5022304;28;8873;-73
2024/04/04 13:56:32;;;;;;;;;6.00;5.00;;;;;;;;5019549;28;8830;-74
2024/04/04 13:58:57;;;;;;;;;7.50;7.00;;;;;;;;5020753;28;8808;-76
2024/04/04 14:01:23;;;;;;;;;17.75;17.75;;;;;;;;5022420;28;8843;-76
2024/04/04 14:03:48;;;;;;;;;6.25;5.00;;;;;;;;5018582;28;9568;-76
2024/04/04 14:06:14;;;;;;;;;7.00;4.75;;;;;;;;5016740;28;8830;-75
2024/04/04 21:30:03;;;;;;;;;15.00;10.25;;;;;;;;5125256;27;13303;-68
2024/04/04 21:32:29;;;;;;;;;11.25;11.25;;;;;;;;5128648;27;12241;-67
2024/04/04 21:34:57;;;;;;;;;11.00;11.00;;;;;;;;5110015;27;11369;-67
2024/04/04 21:37:22;;;;;;;;;15.75;13.00;;;;;;;;5128429;27;9663;-67
2024/04/04 21:39:47;;;;;;;;;11.25;11.25;;;;;;;;5128114;27;11509;-67
2024/04/04 21:42:13;;;;;;;;;14.00;12.50;;;;;;;;5128172;27;8780;-68
2024/04/04 21:44:38;;;;;;;;;13.25;12.25;;;;;;;;5128327;27;8776;-69
2024/04/04 21:47:04;;;;;;;;;14.00;12.00;;;;;;;;5128399;27;8783;-69
2024/04/04 21:49:33;;;;;;;;;10.75;9.00;;;;;;;;5128350;27;8830;-68
2024/04/04 21:51:58;;;;;;;;;9.50;8.00;;;;;;;;5125542;27;8783;-69
2024/04/04 21:54:23;;;;;;;;;12.50;10.00;;;;;;;;5127340;27;11393;-68
2024/04/04 21:56:48;;;;;;;;;11.50;11.50;;;;;;;;5128091;27;8796;-68